Mesabi Miner — WYQ4356 — position and weather

sailwx.info

Track history (hours):
 
Tides and Currents Weather Stations Pressure Air Temp Water Temp Dewpoint Dewpoint Depression Visibility Wind Speed Wind Dir Waves Ship Positions

Mesabi Miner

Owner: THE INTERLAKE STEAMSHIP COMPANY, Middleburg Heights, OH. More information available from US FCC via Universal Licensing System and Coast Guard Vessel Documentation Center.

Last reported at 2018-Apr-20 14:00 UTC. Time now 2018-Apr-20 14:44 UTC.
Position N 41°42' W 083°30'.

Length 305 m; draft 8.4 m.

Type: Cargo ship. MMSI: 366904880.

Wind from 010 at 5 knots

Barometer 1031.3 mb
Air temperature 5.9 ° C
Water temperature 6.2 ° C

Date/timePositionNaut miles runAvg speedWind from/ knotsBaromVisibWave heightAir tempDewpointWater temp
2018-Apr-20 14:00N 41°42' W 083°30'4 4.5 010 / 51031.3 5.9 6.2
2018-Apr-20 13:00N 41°42' W 083°24'0 0.0 340 / 51031.3 3.3 5.9
2018-Apr-20 12:00N 41°42' W 083°24'0 0.0 060 / 81031.0 2.2 5.9
2018-Apr-20 11:00N 41°42' W 083°24'0 0.0 050 / 61030.0 1.5 5.9
2018-Apr-20 10:00N 41°42' W 083°24'0 0.0 050 / 41028.9 1.9 5.9
2018-Apr-20 09:00N 41°42' W 083°24'0 0.0 040 / 51028.3 2.5 6.0
2018-Apr-20 08:00N 41°42' W 083°24'0 0.0 040 / 61028.3 2.9 6.0
2018-Apr-20 07:00N 41°42' W 083°24'0 0.0 340 / 41027.6 2.9 6.0
2018-Apr-20 06:00N 41°42' W 083°24'0 0.0 320 / 41027.6 3.1 6.0
2018-Apr-20 05:00N 41°42' W 083°24'0 0.0 300 / 41027.6 3.2 6.0
2018-Apr-20 04:00N 41°42' W 083°24'7 7.5 100 / 21026.6 3.7 6.0
2018-Apr-20 03:00N 41°48' W 083°18'4 4.5 120 / 101026.6 4.1 5.0
2018-Apr-20 02:00N 41°48' W 083°12'19 9.3 070 / 101026.2 4.4 4.2
2018-Apr-20 00:00N 42°06' W 083°06'6 6.0 080 / 81023.9 4.9 3.2
2018-Apr-19 23:00N 42°12' W 083°06'7 7.5 080 / 161023.0 6.5 3.1
2018-Apr-19 22:00N 42°18' W 083°00'1110.7 080 / 151022.3 6.3 3.4
2018-Apr-19 21:00N 42°24' W 082°48'1110.7 040 / 151021.3 6.8 3.1
2018-Apr-19 20:00N 42°30' W 082°36'7 7.5 030 / 121020.6 6.4 2.4
2018-Apr-19 19:00N 42°36' W 082°30'1212.0 030 / 141021.1 6.8 2.3
2018-Apr-19 18:00N 42°48' W 082°30'6 6.0 340 / 131020.4 5.0 2.1
2018-Apr-19 17:00N 42°54' W 082°30'1312.8 030 / 151020.4 2.5 2.1
2018-Apr-19 16:00N 43°06' W 082°24'1212.0 350 / 221019.8 1.3 2.0
2018-Apr-19 15:00N 43°18' W 082°24'1212.0 350 / 201018.8 0.9 1.2
2018-Apr-19 14:00N 43°30' W 082°24'1212.0 010 / 201017.7 0.9 1.0
2018-Apr-19 13:00N 43°42' W 082°24'1312.8 1016.4 0.9 0.8
2018-Apr-19 12:00N 43°54' W 082°30'1312.8 1015.4 0.6 0.8
2018-Apr-19 11:00N 44°06' W 082°36'1212.0 020 / 261014.3 0.8 0.8
2018-Apr-19 10:00N 44°18' W 082°36'6513.0 020 / 251013.3 1.1 0.7
2018-Apr-19 05:00N 45°18' W 083°12'1514.7 340 / 171013.3 2.1 1.0
2018-Apr-19 04:00N 45°30' W 083°24'616.5 330 / 101014.0 1.6 0.9
2018-Apr-19 03:36N 45°35' W 083°30'113.0
2018-Apr-19 03:30N 45°36' W 083°31'612.8
2018-Apr-19 03:00N 45°41' W 083°37'1126.5
2018-Apr-19 03:00N 45°42' W 083°36'612.2 320 / 81014.0 1.7 0.9
2018-Apr-19 02:30N 45°46' W 083°42'4 8.6
2018-Apr-19 02:00N 45°48' W 083°48'1312.7 330 / 41014.0 2.6 0.7
2018-Apr-19 01:00N 46°00' W 083°54'7 7.3 260 / 31013.3 0.7 0.3
2018-Apr-19 00:00N 46°06' W 084°00'1010.3 060 / 51012.7 4.3 0.2
2018-Apr-18 23:00N 46°12' W 084°12'6 6.0 040 / 111012.3 5.0 0.2
2018-Apr-18 22:00N 46°18' W 084°12'6 6.0 030 / 131012.0 7.4 0.2
2018-Apr-18 21:00N 46°24' W 084°12'7 7.3 040 / 171011.6 5.7 0.4
2018-Apr-18 20:00N 46°30' W 084°18'4 4.1 030 / 161011.6 5.5 0.3
2018-Apr-18 19:00N 46°30' W 084°24'0 0.0 030 / 111012.2 5.1 0.2
2018-Apr-18 18:00N 46°30' W 084°24'0 0.0 1013.2 3.7 0.2
2018-Apr-18 17:00N 46°30' W 084°24'4 4.1 350 / 61013.5 2.5 0.2
2018-Apr-18 16:00N 46°30' W 084°30'4 4.1 330 / 71013.2 0.5 0.2
2018-Apr-18 15:00N 46°30' W 084°36'1010.2 320 / 101012.5 1.5 0.2
2018-Apr-18 14:00N 46°36' W 084°48'7 7.3 350 / 121012.5 -0.6 0.2
2018-Apr-18 13:00N 46°42' W 084°54'0 0.0 010 / 151012.5 -0.6 0.5
2018-Apr-18 12:00N 46°42' W 084°54'0 0.0 1012.2 -1.2 0.2
2018-Apr-18 11:00N 46°42' W 084°54'0 0.0 1012.2 -1.2 0.2
2018-Apr-18 10:00N 46°42' W 084°54'0 0.0 010 / 161012.2 -1.1 0.2
2018-Apr-18 09:00N 46°42' W 084°54'0 0.0 020 / 131011.5 -1.5 0.2
2018-Apr-18 08:00N 46°42' W 084°54'0 0.0 1011.9 -1.2 0.2
2018-Apr-18 07:00N 46°42' W 084°54'0 0.0 010 / 121012.2 -0.8 0.2
2018-Apr-18 06:00N 46°42' W 084°54'0 0.0 360 / 151011.5 -0.9 0.2
2018-Apr-18 05:00N 46°42' W 084°54'0 0.0 360 / 111010.8 -0.8 0.2
2018-Apr-18 04:00N 46°42' W 084°54'0 0.0 350 / 121010.5 -0.2 0.2
2018-Apr-18 03:00N 46°42' W 084°54'0 0.0 1010.5 -0.0 0.2
2018-Apr-18 02:00N 46°42' W 084°54'0 0.0 340 / 161010.2 -0.0 0.2
2018-Apr-18 01:00N 46°42' W 084°54'0 0.0 350 / 161009.5 -0.0 0.2
2018-Apr-18 00:00N 46°42' W 084°54'0 0.0 360 / 181008.8 -0.1 0.2
2018-Apr-17 23:00N 46°42' W 084°54'0 0.0 1008.1 0.4 0.2
2018-Apr-17 22:00N 46°42' W 084°54'1212.0 340 / 161007.5 0.8 0.4
2018-Apr-17 21:00N 46°54' W 084°54'1312.7 330 / 201007.5 -0.1 0.2
2018-Apr-17 20:00N 47°06' W 085°00'180 9.5 330 / 211006.8 -0.2 0.6
2018-Apr-17 01:00N 48°06' W 089°12'1313.4 340 / 231010.5 -3.3 0.7
2018-Apr-17 00:00N 48°00' W 089°30'1414.4 350 / 221011.5 -3.1 0.7
2018-Apr-16 23:00N 47°48' W 089°42'1212.1 350 / 201012.2 -2.9 0.9
2018-Apr-16 22:00N 47°48' W 090°00'1413.5 350 / 221012.2 -1.9 0.9
2018-Apr-16 21:00N 47°42' W 090°18'1413.5 340 / 271012.5 -1.3 1.1
2018-Apr-16 20:00N 47°36' W 090°36'1010.1 350 / 241013.2 -1.1 1.2
2018-Apr-16 19:00N 47°30' W 090°48'1717.1 350 / 241012.9 -2.1 1.1
2018-Apr-16 18:00N 47°18' W 091°06'1010.1 350 / 201014.9 -3.1 1.1
2018-Apr-16 17:00N 47°12' W 091°18'1010.1 340 / 161015.6 -3.8 1.1
2018-Apr-16 16:00N 47°06' W 091°30'1018.2 340 / 171016.6 -4.3 1.0
2018-Apr-16 15:27N 46°58' W 091°39'512.2
2018-Apr-16 15:00N 46°55' W 091°45'2271.3
2018-Apr-16 15:00N 46°54' W 091°42'815.6 1016.9 -3.9 0.7
2018-Apr-16 14:30N 46°52' W 091°53'611.9
2018-Apr-16 14:00N 46°49' W 091°60'158.5
2018-Apr-16 14:00N 46°48' W 092°00'4 8.8 350 / 191017.3 -4.4 0.2
2018-Apr-16 13:30N 46°47' W 092°06'1 2.7
2018-Apr-16 13:00N 46°48' W 092°06'3726.0 360 / 121018.3 -4.5 0.4
2018-Apr-16 12:59N 46°45' W 092°05'1 2.6
2018-Apr-16 12:31N 46°45' W 092°07'3 6.7
2018-Apr-16 12:00N 46°48' W 092°06'353.1 030 / 21017.9 -4.2 0.8
2018-Apr-16 11:56N 46°45' W 092°08'0 0.0
2018-Apr-16 11:29N 46°45' W 092°08'3 6.6
2018-Apr-16 11:00N 46°48' W 092°06'354.6 240 / 11017.9 -4.1 0.9
2018-Apr-16 10:56N 46°45' W 092°08'0 0.0
2018-Apr-16 10:29N 46°45' W 092°08'3 6.6
2018-Apr-16 10:00N 46°48' W 092°06'3342.4 240 / 21017.9 -3.9 0.9
2018-Apr-16 09:59N 46°45' W 092°08'0 0.0
2018-Apr-16 09:29N 46°45' W 092°08'3 6.6
2018-Apr-16 09:00N 46°48' W 092°06'3342.2 1017.9 -3.6 0.9
2018-Apr-16 08:59N 46°45' W 092°08'0 0.0
2018-Apr-16 08:29N 46°45' W 092°08'3 6.6
2018-Apr-16 08:00N 46°48' W 092°06'3306.7 340 / 21017.9 -3.5 0.9
2018-Apr-16 07:59N 46°45' W 092°08'0 0.0
2018-Apr-16 07:29N 46°45' W 092°08'3 6.6
2018-Apr-16 07:00N 46°48' W 092°06'3342.2 1017.9 -3.4 0.9
2018-Apr-16 06:59N 46°45' W 092°08'0 0.0
2018-Apr-16 06:17N 46°45' W 092°08'311.2
2018-Apr-16 06:00N 46°48' W 092°06'3298.3 290 / 31018.3 -3.6 0.9
2018-Apr-16 05:59N 46°45' W 092°08'0 0.0
2018-Apr-16 05:29N 46°45' W 092°08'3 6.6
2018-Apr-16 05:00N 46°48' W 092°06'3306.2 040 / 31018.6 -3.5 1.0
2018-Apr-16 04:59N 46°45' W 092°08'0 0.0
2018-Apr-16 04:20N 46°45' W 092°08'3 9.5
2018-Apr-16 04:00N 46°48' W 092°06'320.1 110 / 31018.6 -3.5 1.0
2018-Apr-16 03:50N 46°45' W 092°08'0 0.0
2018-Apr-16 03:20N 46°45' W 092°08'3 9.5
2018-Apr-16 03:00N 46°48' W 092°06'320.1 030 / 41019.3 -3.8 1.0
2018-Apr-16 02:50N 46°45' W 092°08'0 0.0
2018-Apr-16 02:20N 46°45' W 092°08'3 9.5
2018-Apr-16 02:00N 46°48' W 092°06'320.1 330 / 41019.6 -4.3 1.0
2018-Apr-16 01:50N 46°45' W 092°08'0 0.0
2018-Apr-16 01:23N 46°45' W 092°08'3 8.3
2018-Apr-16 01:00N 46°48' W 092°06'329.0 040 / 31020.0 -4.5 1.0
2018-Apr-16 00:53N 46°45' W 092°08'0 0.0
2018-Apr-16 00:23N 46°45' W 092°08'3 8.3
2018-Apr-16 00:00N 46°48' W 092°06'320.1 010 / 141020.3 -4.6 1.0
2018-Apr-15 23:50N 46°45' W 092°08'0 0.0
2018-Apr-15 23:23N 46°45' W 092°08'3 8.3
2018-Apr-15 23:00N 46°48' W 092°06'352.6 280 / 171020.3 -4.1 1.1
2018-Apr-15 22:56N 46°45' W 092°08'0 0.0
2018-Apr-15 22:26N 46°45' W 092°08'3 7.4
2018-Apr-15 22:00N 46°48' W 092°06'352.4 300 / 31020.7 -4.2 1.0
2018-Apr-15 21:56N 46°45' W 092°08'0 0.0
2018-Apr-15 21:23N 46°45' W 092°08'3 8.3
2018-Apr-15 21:00N 46°48' W 092°06'3298.3 180 / 21021.0 -2.9 1.0
2018-Apr-15 20:59N 46°45' W 092°08'0 0.0
2018-Apr-15 20:29N 46°45' W 092°08'3 6.6
2018-Apr-15 20:00N 46°48' W 092°06'3306.7 210 / 31021.3 -3.1 0.9
2018-Apr-15 19:59N 46°45' W 092°08'0 0.0
2018-Apr-15 19:29N 46°45' W 092°08'3 6.6
2018-Apr-15 19:00N 46°48' W 092°06'354.4 080 / 21021.7 -3.0 0.9
2018-Apr-15 18:56N 46°45' W 092°08'0 0.0
2018-Apr-15 18:26N 46°45' W 092°08'3 7.4
2018-Apr-15 18:00N 46°48' W 092°06'3291.0 200 / 21023.0 -3.6 0.9
2018-Apr-15 17:59N 46°45' W 092°08'0 0.0
2018-Apr-15 17:29N 46°45' W 092°08'3 6.6
2018-Apr-15 17:00N 46°48' W 092°06'352.9 270 / 41023.7 -3.9 0.9
2018-Apr-15 16:56N 46°45' W 092°08'0 0.0
2018-Apr-15 16:29N 46°45' W 092°08'3 6.6
2018-Apr-15 16:00N 46°48' W 092°06'3291.5 260 / 31024.0 -3.9 1.0
2018-Apr-15 15:59N 46°45' W 092°08'0 0.0
2018-Apr-15 15:17N 46°45' W 092°08'311.2
2018-Apr-15 15:00N 46°48' W 092°06'3270.6 220 / 21023.7 -4.1 0.9
2018-Apr-15 14:59N 46°45' W 092°08'0 0.0
2018-Apr-15 14:29N 46°45' W 092°08'3 6.6
2018-Apr-15 14:00N 46°48' W 092°06'3277.5 330 / 31023.7 -3.9 1.0
2018-Apr-15 13:59N 46°45' W 092°08'0 0.0
2018-Apr-15 13:29N 46°45' W 092°08'3 6.6
2018-Apr-15 13:00N 46°48' W 092°06'3264.4 260 / 51023.4 -3.4 1.0
2018-Apr-15 12:59N 46°45' W 092°08'0 0.0
2018-Apr-15 12:05N 46°45' W 092°08'336.3
2018-Apr-15 12:00N 46°48' W 092°06'315.2 220 / 61023.0 -2.8 1.2
2018-Apr-15 11:47N 46°45' W 092°08'0 0.0
2018-Apr-15 11:23N 46°45' W 092°08'3 8.4
2018-Apr-15 11:00N 46°48' W 092°06'315.3 230 / 51022.4 -2.2 1.3
2018-Apr-15 10:47N 46°45' W 092°08'0 0.0
2018-Apr-15 10:05N 46°45' W 092°08'336.2
2018-Apr-15 10:00N 46°48' W 092°06'328.9 170 / 61022.4 -2.8 1.3
2018-Apr-15 09:53N 46°45' W 092°08'0 0.0
2018-Apr-15 09:05N 46°45' W 092°08'336.9
2018-Apr-15 09:00N 46°48' W 092°06'328.9 260 / 51023.0 -2.4 1.2
2018-Apr-15 08:53N 46°45' W 092°08'0 0.0
2018-Apr-15 08:26N 46°45' W 092°08'3 7.4
2018-Apr-15 08:00N 46°48' W 092°06'352.3 290 / 41023.4 -2.2 1.2
2018-Apr-15 07:56N 46°45' W 092°08'0 0.0
2018-Apr-15 07:23N 46°45' W 092°08'3 8.4
2018-Apr-15 07:00N 46°48' W 092°06'352.0 210 / 41024.0 -1.6 1.3
2018-Apr-15 06:56N 46°45' W 092°08'0 0.0
2018-Apr-15 06:26N 46°45' W 092°08'3 7.4
2018-Apr-15 06:00N 46°48' W 092°06'352.4 150 / 41025.4 -1.2 1.3
2018-Apr-15 05:56N 46°45' W 092°08'0 0.0
2018-Apr-15 05:14N 46°45' W 092°08'313.6
2018-Apr-15 05:00N 46°48' W 092°06'3258.5 270 / 41026.1 -1.2 1.2
2018-Apr-15 04:59N 46°45' W 092°08'0 0.0
2018-Apr-15 04:26N 46°45' W 092°08'3 7.4
2018-Apr-15 04:00N 46°48' W 092°06'3253.5 290 / 41026.8 -1.3 1.1
2018-Apr-15 03:59N 46°45' W 092°08'0 0.0
2018-Apr-15 03:29N 46°45' W 092°08'3 6.6
2018-Apr-15 03:00N 46°48' W 092°06'3277.5 300 / 41027.4 -2.0 1.1
2018-Apr-15 02:59N 46°45' W 092°08'0 0.0
2018-Apr-15 02:29N 46°45' W 092°08'3 6.6
2018-Apr-15 02:00N 46°48' W 092°06'351.7 190 / 41027.4 -2.0 1.2
2018-Apr-15 01:56N 46°45' W 092°08'0 0.0
2018-Apr-15 01:29N 46°45' W 092°08'3 6.6
2018-Apr-15 01:00N 46°48' W 092°06'3270.3 270 / 41028.4 -2.4 1.3
2018-Apr-15 00:59N 46°45' W 092°08'0 0.0
2018-Apr-15 00:29N 46°45' W 092°08'3 6.6
2018-Apr-15 00:00N 46°48' W 092°06'3242.5 200 / 51027.8 -2.8 1.4
2018-Apr-14 23:59N 46°45' W 092°08'0 0.0
2018-Apr-14 23:29N 46°45' W 092°08'3 6.6
2018-Apr-14 23:00N 46°48' W 092°06'3237.0 140 / 41027.4 -3.2 1.4
2018-Apr-14 22:59N 46°45' W 092°08'0 0.0
2018-Apr-14 22:20N 46°45' W 092°08'3 9.6
2018-Apr-14 22:00N 46°48' W 092°06'315.2 180 / 51026.4 -3.5 1.4
2018-Apr-14 21:47N 46°45' W 092°08'0 0.0
2018-Apr-14 21:20N 46°45' W 092°08'3 9.6
2018-Apr-14 21:00N 46°48' W 092°06'319.9 220 / 51025.4 -3.5 1.4
2018-Apr-14 20:50N 46°45' W 092°08'0 0.0
2018-Apr-14 20:23N 46°45' W 092°08'3 8.3
2018-Apr-14 20:00N 46°48' W 092°06'328.5 220 / 41026.4 -3.5 1.4
2018-Apr-14 19:53N 46°45' W 092°08'0 0.0
2018-Apr-14 19:23N 46°45' W 092°08'3 8.4
2018-Apr-14 19:00N 46°48' W 092°06'319.8 210 / 51026.8 -3.8 1.4
2018-Apr-14 18:50N 46°45' W 092°08'0 0.0
2018-Apr-14 18:23N 46°45' W 092°08'3 8.4
2018-Apr-14 18:00N 46°48' W 092°06'328.5 040 / 131026.4 -3.5 1.4
2018-Apr-14 17:53N 46°45' W 092°08'0 0.0
2018-Apr-14 17:26N 46°45' W 092°08'3 7.4
2018-Apr-14 17:00N 46°48' W 092°06'351.3 200 / 61028.4 -3.3 1.4
2018-Apr-14 16:56N 46°45' W 092°08'0 0.0
2018-Apr-14 16:26N 46°45' W 092°08'3 7.4
2018-Apr-14 16:00N 46°48' W 092°06'328.4 010 / 101028.1 -3.0 1.4
2018-Apr-14 15:53N 46°45' W 092°08'0 0.0
2018-Apr-14 15:26N 46°45' W 092°08'3 7.4
2018-Apr-14 15:00N 46°48' W 092°06'3248.0 060 / 101027.4 -3.0 1.4
2018-Apr-14 14:59N 46°45' W 092°08'0 0.0
2018-Apr-14 14:29N 46°45' W 092°08'3 6.6
2018-Apr-14 14:00N 46°48' W 092°06'3223.9 020 / 81026.4 -2.5 1.4
2018-Apr-14 13:59N 46°45' W 092°08'0 0.0
2018-Apr-14 13:29N 46°45' W 092°08'3 6.7
2018-Apr-14 13:00N 46°48' W 092°06'351.9 120 / 61025.1 -2.3 1.4
2018-Apr-14 12:56N 46°45' W 092°08'0 0.0
2018-Apr-14 12:29N 46°45' W 092°08'3 6.7
2018-Apr-14 12:00N 46°48' W 092°06'349.7 080 / 61024.7 -2.0 1.4
2018-Apr-14 11:56N 46°45' W 092°08'0 0.0
2018-Apr-14 11:29N 46°45' W 092°08'3 6.6
2018-Apr-14 11:00N 46°48' W 092°06'3223.9 350 / 91024.0 -1.9 1.4
2018-Apr-14 10:59N 46°45' W 092°08'0 0.0
2018-Apr-14 10:29N 46°45' W 092°08'3 6.6
2018-Apr-14 10:00N 46°48' W 092°06'3228.1 320 / 71024.0 -1.2 1.6
2018-Apr-14 09:59N 46°45' W 092°08'0 0.0
2018-Apr-14 09:17N 46°45' W 092°08'311.2
2018-Apr-14 09:00N 46°48' W 092°06'3232.7 340 / 61024.0 -0.9 1.7
2018-Apr-14 08:59N 46°45' W 092°08'0 0.0
2018-Apr-14 08:29N 46°45' W 092°08'3 6.6
2018-Apr-14 08:00N 46°48' W 092°06'3237.8 030 / 111024.4 -0.5 1.8
2018-Apr-14 07:59N 46°45' W 092°08'0 0.0
2018-Apr-14 07:29N 46°45' W 092°08'3 6.7
2018-Apr-14 07:00N 46°48' W 092°06'3242.5 120 / 71023.7 -0.3 1.7
2018-Apr-14 06:59N 46°45' W 092°08'0 0.0
2018-Apr-14 06:20N 46°45' W 092°08'3 9.6
2018-Apr-14 06:00N 46°48' W 092°06'319.8 340 / 81023.4 0.2 1.6
2018-Apr-14 05:50N 46°45' W 092°08'0 0.0
2018-Apr-14 05:23N 46°45' W 092°08'3 8.4
2018-Apr-14 05:00N 46°48' W 092°06'328.3 1023.4 0.5 1.7
2018-Apr-14 04:53N 46°45' W 092°08'0 0.0
2018-Apr-14 04:23N 46°45' W 092°08'3 8.4
2018-Apr-14 04:00N 46°48' W 092°06'328.4 320 / 51023.7 0.6 1.7
2018-Apr-14 03:53N 46°45' W 092°08'0 0.0
2018-Apr-14 03:20N 46°45' W 092°08'3 9.6
2018-Apr-14 03:00N 46°48' W 092°06'351.5 020 / 71023.7 0.8 1.6
2018-Apr-14 02:56N 46°45' W 092°08'0 0.0
2018-Apr-14 02:26N 46°45' W 092°08'3 7.4
2018-Apr-14 02:00N 46°48' W 092°06'349.7 020 / 81022.4 1.0 1.6
2018-Apr-14 01:56N 46°45' W 092°08'0 0.0
2018-Apr-14 01:23N 46°45' W 092°08'3 8.4
2018-Apr-14 01:00N 46°48' W 092°06'350.6 340 / 61021.3 0.9 1.5
2018-Apr-14 00:56N 46°45' W 092°08'0 0.0
2018-Apr-14 00:26N 46°45' W 092°08'3 7.4
2018-Apr-14 00:00N 46°48' W 092°06'350.0 340 / 111021.0 1.2 1.5
2018-Apr-13 23:56N 46°45' W 092°08'0 0.0
2018-Apr-13 23:29N 46°45' W 092°08'3 6.7
2018-Apr-13 23:00N 46°48' W 092°06'3242.1 350 / 131019.3 1.2 1.5
2018-Apr-13 22:59N 46°45' W 092°08'0 0.0
2018-Apr-13 22:29N 46°45' W 092°08'3 6.7
2018-Apr-13 22:00N 46°48' W 092°06'3215.2 010 / 91020.0 1.5 1.5
2018-Apr-13 21:59N 46°45' W 092°08'0 0.0
2018-Apr-13 21:29N 46°45' W 092°08'3 6.7
2018-Apr-13 21:00N 46°48' W 092°06'3219.3 070 / 71019.0 1.6 1.5
2018-Apr-13 20:59N 46°45' W 092°08'0 0.0
2018-Apr-13 20:29N 46°45' W 092°08'3 6.6
2018-Apr-13 20:00N 46°48' W 092°06'310.2 040 / 61017.9 1.8 1.5
2018-Apr-13 19:41N 46°45' W 092°08'0 0.0
2018-Apr-13 19:29N 46°45' W 092°08'3 6.7
2018-Apr-13 19:00N 46°48' W 092°06'3223.5 010 / 141017.3 2.6 1.5
2018-Apr-13 18:59N 46°45' W 092°08'0 0.0
2018-Apr-13 18:29N 46°45' W 092°08'3 6.7
2018-Apr-13 18:00N 46°48' W 092°06'3 7.8 020 / 111017.6 1.8 1.5
2018-Apr-13 17:35N 46°45' W 092°08'0 0.0
2018-Apr-13 17:29N 46°45' W 092°08'3 6.7
2018-Apr-13 17:00N 46°48' W 092°06'319.5 1016.9 2.0 1.5
2018-Apr-13 16:50N 46°45' W 092°08'0 0.0
2018-Apr-13 16:20N 46°45' W 092°08'3 9.6
2018-Apr-13 16:00N 46°48' W 092°06'319.5 020 / 111016.3 1.3 1.5
2018-Apr-13 15:50N 46°45' W 092°08'0 0.0
2018-Apr-13 15:08N 46°45' W 092°08'323.9
2018-Apr-13 15:00N 46°48' W 092°06'3 7.8 030 / 91015.6 1.2 1.5
2018-Apr-13 14:35N 46°45' W 092°08'0 0.0
2018-Apr-13 14:23N 46°45' W 092°08'3 8.4
2018-Apr-13 14:00N 46°48' W 092°06'327.9 010 / 101015.9 1.4 1.4
2018-Apr-13 13:53N 46°45' W 092°08'0 0.0
2018-Apr-13 13:23N 46°45' W 092°08'0 0.0
2018-Apr-13 12:53N 46°45' W 092°08'0 0.0
2018-Apr-13 12:23N 46°45' W 092°08'0 0.0
2018-Apr-13 11:53N 46°45' W 092°08'0 0.0
2018-Apr-13 11:20N 46°45' W 092°08'0 0.0
2018-Apr-13 10:56N 46°45' W 092°08'0 0.0
2018-Apr-13 10:26N 46°45' W 092°08'3 7.4
2018-Apr-13 10:00N 46°48' W 092°06'349.9 030 / 41012.2 2.6 1.4
2018-Apr-13 09:56N 46°45' W 092°08'0 0.0
2018-Apr-13 09:26N 46°45' W 092°08'3 7.4
2018-Apr-13 09:00N 46°48' W 092°06'349.7 230 / 21011.5 2.5 1.3
2018-Apr-13 08:56N 46°45' W 092°08'1 1.5
2018-Apr-13 08:30N 46°45' W 092°07'3 6.8
2018-Apr-13 08:00N 46°48' W 092°06'351.1 030 / 131011.5 2.6 1.3
2018-Apr-13 07:56N 46°45' W 092°06'0 0.9
2018-Apr-13 07:26N 46°46' W 092°06'2 5.5
2018-Apr-13 07:00N 46°48' W 092°06'223.0 040 / 161011.5 3.2 1.5
2018-Apr-13 06:53N 46°46' W 092°06'0 0.0
2018-Apr-13 06:26N 46°46' W 092°06'2 5.5
2018-Apr-13 06:00N 46°48' W 092°06'243.1 050 / 61011.9 2.7 1.5
2018-Apr-13 05:56N 46°46' W 092°06'0 0.4
2018-Apr-13 05:30N 46°46' W 092°06'2 3.9
2018-Apr-13 05:00N 46°47' W 092°04'297.7
2018-Apr-13 05:00N 46°48' W 092°06'713.4 330 / 11012.2 3.4 1.0
2018-Apr-13 04:30N 46°49' W 091°57'713.3
2018-Apr-13 04:00N 46°52' W 091°48'2183.6
2018-Apr-13 04:00N 46°54' W 091°48'713.6 080 / 21011.9 3.1 1.4
2018-Apr-13 03:30N 46°54' W 091°38'611.1
2018-Apr-13 03:00N 46°54' W 091°30'1413.7 250 / 31012.2 1.7 1.0
2018-Apr-13 02:00N 47°00' W 091°12'1413.7 190 / 51010.2 1.7 1.2
2018-Apr-13 01:00N 47°06' W 090°54'1212.3 200 / 61008.8 1.4 0.9
2018-Apr-13 00:00N 47°06' W 090°36'1413.6 190 / 81008.5 1.4 0.9
2018-Apr-12 23:00N 47°12' W 090°18'1717.4 190 / 121008.1 0.8 1.0
2018-Apr-12 22:00N 47°18' W 089°54'1212.2 210 / 91007.8 0.9 0.8
2018-Apr-12 21:00N 47°18' W 089°36'1413.6 060 / 51007.810.8 0.6 0.7
2018-Apr-12 20:00N 47°24' W 089°18'1212.2 270 / 61008.5 0.7 0.7
2018-Apr-12 19:00N 47°24' W 089°00'1717.3 280 / 21007.1 0.4 0.7
2018-Apr-12 18:00N 47°30' W 088°36'1212.2 190 / 41007.1 0.2 0.6
2018-Apr-12 17:00N 47°30' W 088°18'1413.5 050 / 61006.8 0.2 0.6
2018-Apr-12 16:00N 47°36' W 088°00'1413.5 350 / 71006.1 -0.1 0.6
2018-Apr-12 15:00N 47°30' W 087°42'1413.6 020 / 91005.4 -0.1 0.7
2018-Apr-12 14:00N 47°24' W 087°24'1413.6 200 / 61005.1 -0.4 0.6
2018-Apr-12 13:00N 47°18' W 087°06'1616.3 180 / 91005.4 -0.5 0.6
2018-Apr-12 12:00N 47°18' W 086°42'6613.2 180 / 61005.8 0.3 0.7
2018-Apr-12 07:00N 46°54' W 085°12'1413.7 140 / 101011.2 -2.0 0.7
2018-Apr-12 06:00N 46°48' W 084°54'1312.7 150 / 41011.5 -4.6 0.6
2018-Apr-12 05:00N 46°36' W 084°48'1010.2 110 / 71012.2 -6.0 0.8
2018-Apr-12 04:00N 46°30' W 084°36'8 8.3 150 / 71013.2 -2.8 0.4
2018-Apr-12 03:00N 46°30' W 084°24'0 0.0 060 / 21013.5 -1.6 0.2
2018-Apr-12 02:00N 46°30' W 084°24'4 4.1 260 / 31014.6 -0.1 0.2
2018-Apr-12 01:00N 46°30' W 084°18'0 0.0 200 / 41013.3 1.6 0.4
2018-Apr-12 00:00N 46°30' W 084°18'0 0.0 350 / 41013.0 2.4 0.3
2018-Apr-11 23:00N 46°30' W 084°18'0 0.0 320 / 81013.0 2.8 0.2
2018-Apr-11 22:00N 46°30' W 084°18'7 7.3 310 / 91013.0 2.6 0.3
2018-Apr-11 21:00N 46°24' W 084°12'0 0.0 310 / 71013.0 2.5 0.2
2018-Apr-11 20:00N 46°24' W 084°12'0 0.0 320 / 131012.7 2.4 0.2
2018-Apr-11 19:00N 46°24' W 084°12'7 7.3 270 / 141011.6 2.0 0.2
2018-Apr-11 18:00N 46°18' W 084°06'6 6.0 300 / 171011.0 1.8 0.2
2018-Apr-11 17:00N 46°12' W 084°06'1312.7 300 / 81010.3 1.2 0.3
2018-Apr-11 16:00N 46°00' W 084°00'1010.3 240 / 51010.6 0.6 0.6
2018-Apr-11 15:00N 45°54' W 083°48'818.9 270 / 181011.0 -0.2 0.8
2018-Apr-11 14:35N 45°47' W 083°45'313.5
2018-Apr-11 14:22N 45°44' W 083°42'513.6
2018-Apr-11 14:00N 45°40' W 083°38'3421.0
2018-Apr-11 14:00N 45°42' W 083°42'1020.2 220 / 191010.6 0.9 1.2
2018-Apr-11 13:30N 45°35' W 083°33'713.7
2018-Apr-11 13:00N 45°29' W 083°27'713.6
2018-Apr-11 12:30N 45°23' W 083°22'611.5
2018-Apr-11 12:00N 45°18' W 083°18'1514.7 210 / 141012.3 0.4 0.7
2018-Apr-11 11:00N 45°06' W 083°06'1312.7 220 / 141013.3 0.6 0.7
2018-Apr-11 10:00N 44°54' W 083°00'1312.7 230 / 161013.3 0.7 1.2
2018-Apr-11 09:00N 44°42' W 082°54'1312.7 210 / 121014.3 0.8 1.2
2018-Apr-11 08:00N 44°30' W 082°48'4414.6 230 / 121015.010.8 0.9 1.0
2018-Apr-11 05:00N 43°48' W 082°30'1212.0 250 / 141017.7 1.6 1.2
2018-Apr-11 04:00N 43°36' W 082°30'1212.0 240 / 141018.4 2.4 1.3
2018-Apr-11 03:00N 43°24' W 082°30'1918.5 200 / 121018.8 2.4 1.5
2018-Apr-11 02:00N 43°06' W 082°24'6 6.0 200 / 101019.4 3.1 2.1
2018-Apr-11 01:00N 43°00' W 082°24'1312.8 190 / 141019.4 4.9 2.1
2018-Apr-11 00:00N 42°48' W 082°30'6 6.0 190 / 101019.8 4.4 2.0
2018-Apr-10 23:00N 42°42' W 082°30'1312.8 180 / 111020.4 4.8 1.9
2018-Apr-10 22:00N 42°30' W 082°36'1110.7 180 / 121020.6 4.4 2.0
2018-Apr-10 21:00N 42°24' W 082°48'1110.7 150 / 131020.6 3.5 3.0
2018-Apr-10 20:00N 42°18' W 083°00'4 4.4 220 / 81020.9 5.3 3.5
2018-Apr-10 19:00N 42°18' W 083°06'0 0.0 200 / 71021.6 7.0 2.8
2018-Apr-10 18:00N 42°18' W 083°06'6 6.0 250 / 41022.6 6.6 2.8
2018-Apr-10 17:00N 42°12' W 083°06'6 6.0 260 / 71023.3 3.7 3.0
2018-Apr-10 16:00N 42°06' W 083°06'1212.0 140 / 41024.2 1.9 3.0
2018-Apr-10 15:00N 41°54' W 083°06'1313.4 280 / 61024.2 0.8 2.7
2018-Apr-10 14:00N 41°54' W 082°48'   260 / 61023.9 0.7 3.3
Track history (hours):
 
Tides and Currents Weather Stations Pressure Air Temp Water Temp Dewpoint Dewpoint Depression Visibility Wind Speed Wind Dir Waves Ship Positions

Mesabi Miner

Owner: THE INTERLAKE STEAMSHIP COMPANY, Middleburg Heights, OH. More information available from US FCC via Universal Licensing System and Coast Guard Vessel Documentation Center.

Last reported at 2018-Apr-20 14:00 UTC. Time now 2018-Apr-20 14:44 UTC.
Position N 41°42' W 083°30'.

Length 305 m; draft 8.4 m.

Type: Cargo ship. MMSI: 366904880.

Wind from 010 at 5 knots

Barometer 1031.3 mb
Air temperature 5.9 ° C
Water temperature 6.2 ° C

Date/timePositionNaut miles runAvg speedWind from/ knotsBaromVisibWave heightAir tempDewpointWater temp
2018-Apr-20 14:00N 41°42' W 083°30'4 4.5 010 / 51031.3 5.9 6.2
2018-Apr-20 13:00N 41°42' W 083°24'0 0.0 340 / 51031.3 3.3 5.9
2018-Apr-20 12:00N 41°42' W 083°24'0 0.0 060 / 81031.0 2.2 5.9
2018-Apr-20 11:00N 41°42' W 083°24'0 0.0 050 / 61030.0 1.5 5.9
2018-Apr-20 10:00N 41°42' W 083°24'0 0.0 050 / 41028.9 1.9 5.9
2018-Apr-20 09:00N 41°42' W 083°24'0 0.0 040 / 51028.3 2.5 6.0
2018-Apr-20 08:00N 41°42' W 083°24'0 0.0 040 / 61028.3 2.9 6.0
2018-Apr-20 07:00N 41°42' W 083°24'0 0.0 340 / 41027.6 2.9 6.0
2018-Apr-20 06:00N 41°42' W 083°24'0 0.0 320 / 41027.6 3.1 6.0
2018-Apr-20 05:00N 41°42' W 083°24'0 0.0 300 / 41027.6 3.2 6.0
2018-Apr-20 04:00N 41°42' W 083°24'7 7.5 100 / 21026.6 3.7 6.0
2018-Apr-20 03:00N 41°48' W 083°18'4 4.5 120 / 101026.6 4.1 5.0
2018-Apr-20 02:00N 41°48' W 083°12'19 9.3 070 / 101026.2 4.4 4.2
2018-Apr-20 00:00N 42°06' W 083°06'6 6.0 080 / 81023.9 4.9 3.2
2018-Apr-19 23:00N 42°12' W 083°06'7 7.5 080 / 161023.0 6.5 3.1
2018-Apr-19 22:00N 42°18' W 083°00'1110.7 080 / 151022.3 6.3 3.4
2018-Apr-19 21:00N 42°24' W 082°48'1110.7 040 / 151021.3 6.8 3.1
2018-Apr-19 20:00N 42°30' W 082°36'7 7.5 030 / 121020.6 6.4 2.4
2018-Apr-19 19:00N 42°36' W 082°30'1212.0 030 / 141021.1 6.8 2.3
2018-Apr-19 18:00N 42°48' W 082°30'6 6.0 340 / 131020.4 5.0 2.1
2018-Apr-19 17:00N 42°54' W 082°30'1312.8 030 / 151020.4 2.5 2.1
2018-Apr-19 16:00N 43°06' W 082°24'1212.0 350 / 221019.8 1.3 2.0
2018-Apr-19 15:00N 43°18' W 082°24'1212.0 350 / 201018.8 0.9 1.2
2018-Apr-19 14:00N 43°30' W 082°24'1212.0 010 / 201017.7 0.9 1.0
2018-Apr-19 13:00N 43°42' W 082°24'1312.8 1016.4 0.9 0.8
2018-Apr-19 12:00N 43°54' W 082°30'1312.8 1015.4 0.6 0.8
2018-Apr-19 11:00N 44°06' W 082°36'1212.0 020 / 261014.3 0.8 0.8
2018-Apr-19 10:00N 44°18' W 082°36'6513.0 020 / 251013.3 1.1 0.7
2018-Apr-19 05:00N 45°18' W 083°12'1514.7 340 / 171013.3 2.1 1.0
2018-Apr-19 04:00N 45°30' W 083°24'616.5 330 / 101014.0 1.6 0.9
2018-Apr-19 03:36N 45°35' W 083°30'113.0
2018-Apr-19 03:30N 45°36' W 083°31'612.8
2018-Apr-19 03:00N 45°41' W 083°37'1126.5
2018-Apr-19 03:00N 45°42' W 083°36'612.2 320 / 81014.0 1.7 0.9
2018-Apr-19 02:30N 45°46' W 083°42'4 8.6
2018-Apr-19 02:00N 45°48' W 083°48'1312.7 330 / 41014.0 2.6 0.7
2018-Apr-19 01:00N 46°00' W 083°54'7 7.3 260 / 31013.3 0.7 0.3
2018-Apr-19 00:00N 46°06' W 084°00'1010.3 060 / 51012.7 4.3 0.2
2018-Apr-18 23:00N 46°12' W 084°12'6 6.0 040 / 111012.3 5.0 0.2
2018-Apr-18 22:00N 46°18' W 084°12'6 6.0 030 / 131012.0 7.4 0.2
2018-Apr-18 21:00N 46°24' W 084°12'7 7.3 040 / 171011.6 5.7 0.4
2018-Apr-18 20:00N 46°30' W 084°18'4 4.1 030 / 161011.6 5.5 0.3
2018-Apr-18 19:00N 46°30' W 084°24'0 0.0 030 / 111012.2 5.1 0.2
2018-Apr-18 18:00N 46°30' W 084°24'0 0.0 1013.2 3.7 0.2
2018-Apr-18 17:00N 46°30' W 084°24'4 4.1 350 / 61013.5 2.5 0.2
2018-Apr-18 16:00N 46°30' W 084°30'4 4.1 330 / 71013.2 0.5 0.2
2018-Apr-18 15:00N 46°30' W 084°36'1010.2 320 / 101012.5 1.5 0.2
2018-Apr-18 14:00N 46°36' W 084°48'7 7.3 350 / 121012.5 -0.6 0.2
2018-Apr-18 13:00N 46°42' W 084°54'0 0.0 010 / 151012.5 -0.6 0.5
2018-Apr-18 12:00N 46°42' W 084°54'0 0.0 1012.2 -1.2 0.2
2018-Apr-18 11:00N 46°42' W 084°54'0 0.0 1012.2 -1.2 0.2
2018-Apr-18 10:00N 46°42' W 084°54'0 0.0 010 / 161012.2 -1.1 0.2
2018-Apr-18 09:00N 46°42' W 084°54'0 0.0 020 / 131011.5 -1.5 0.2
2018-Apr-18 08:00N 46°42' W 084°54'0 0.0 1011.9 -1.2 0.2
2018-Apr-18 07:00N 46°42' W 084°54'0 0.0 010 / 121012.2 -0.8 0.2
2018-Apr-18 06:00N 46°42' W 084°54'0 0.0 360 / 151011.5 -0.9 0.2
2018-Apr-18 05:00N 46°42' W 084°54'0 0.0 360 / 111010.8 -0.8 0.2
2018-Apr-18 04:00N 46°42' W 084°54'0 0.0 350 / 121010.5 -0.2 0.2
2018-Apr-18 03:00N 46°42' W 084°54'0 0.0 1010.5 -0.0 0.2
2018-Apr-18 02:00N 46°42' W 084°54'0 0.0 340 / 161010.2 -0.0 0.2
2018-Apr-18 01:00N 46°42' W 084°54'0 0.0 350 / 161009.5 -0.0 0.2
2018-Apr-18 00:00N 46°42' W 084°54'0 0.0 360 / 181008.8 -0.1 0.2
2018-Apr-17 23:00N 46°42' W 084°54'0 0.0 1008.1 0.4 0.2
2018-Apr-17 22:00N 46°42' W 084°54'1212.0 340 / 161007.5 0.8 0.4
2018-Apr-17 21:00N 46°54' W 084°54'1312.7 330 / 201007.5 -0.1 0.2
2018-Apr-17 20:00N 47°06' W 085°00'180 9.5 330 / 211006.8 -0.2 0.6
2018-Apr-17 01:00N 48°06' W 089°12'1313.4 340 / 231010.5 -3.3 0.7
2018-Apr-17 00:00N 48°00' W 089°30'1414.4 350 / 221011.5 -3.1 0.7
2018-Apr-16 23:00N 47°48' W 089°42'1212.1 350 / 201012.2 -2.9 0.9
2018-Apr-16 22:00N 47°48' W 090°00'1413.5 350 / 221012.2 -1.9 0.9
2018-Apr-16 21:00N 47°42' W 090°18'1413.5 340 / 271012.5 -1.3 1.1
2018-Apr-16 20:00N 47°36' W 090°36'1010.1 350 / 241013.2 -1.1 1.2
2018-Apr-16 19:00N 47°30' W 090°48'1717.1 350 / 241012.9 -2.1 1.1
2018-Apr-16 18:00N 47°18' W 091°06'1010.1 350 / 201014.9 -3.1 1.1
2018-Apr-16 17:00N 47°12' W 091°18'1010.1 340 / 161015.6 -3.8 1.1
2018-Apr-16 16:00N 47°06' W 091°30'1018.2 340 / 171016.6 -4.3 1.0
2018-Apr-16 15:27N 46°58' W 091°39'512.2
2018-Apr-16 15:00N 46°55' W 091°45'2271.3
2018-Apr-16 15:00N 46°54' W 091°42'815.6 1016.9 -3.9 0.7
2018-Apr-16 14:30N 46°52' W 091°53'611.9
2018-Apr-16 14:00N 46°49' W 091°60'158.5
2018-Apr-16 14:00N 46°48' W 092°00'4 8.8 350 / 191017.3 -4.4 0.2
2018-Apr-16 13:30N 46°47' W 092°06'1 2.7
2018-Apr-16 13:00N 46°48' W 092°06'3726.0 360 / 121018.3 -4.5 0.4
2018-Apr-16 12:59N 46°45' W 092°05'1 2.6
2018-Apr-16 12:31N 46°45' W 092°07'3 6.7
2018-Apr-16 12:00N 46°48' W 092°06'353.1 030 / 21017.9 -4.2 0.8
2018-Apr-16 11:56N 46°45' W 092°08'0 0.0
2018-Apr-16 11:29N 46°45' W 092°08'3 6.6
2018-Apr-16 11:00N 46°48' W 092°06'354.6 240 / 11017.9 -4.1 0.9
2018-Apr-16 10:56N 46°45' W 092°08'0 0.0
2018-Apr-16 10:29N 46°45' W 092°08'3 6.6
2018-Apr-16 10:00N 46°48' W 092°06'3342.4 240 / 21017.9 -3.9 0.9
2018-Apr-16 09:59N 46°45' W 092°08'0 0.0
2018-Apr-16 09:29N 46°45' W 092°08'3 6.6
2018-Apr-16 09:00N 46°48' W 092°06'3342.2 1017.9 -3.6 0.9
2018-Apr-16 08:59N 46°45' W 092°08'0 0.0
2018-Apr-16 08:29N 46°45' W 092°08'3 6.6
2018-Apr-16 08:00N 46°48' W 092°06'3306.7 340 / 21017.9 -3.5 0.9
2018-Apr-16 07:59N 46°45' W 092°08'0 0.0
2018-Apr-16 07:29N 46°45' W 092°08'3 6.6
2018-Apr-16 07:00N 46°48' W 092°06'3342.2 1017.9 -3.4 0.9
2018-Apr-16 06:59N 46°45' W 092°08'0 0.0
2018-Apr-16 06:17N 46°45' W 092°08'311.2
2018-Apr-16 06:00N 46°48' W 092°06'3298.3 290 / 31018.3 -3.6 0.9
2018-Apr-16 05:59N 46°45' W 092°08'0 0.0
2018-Apr-16 05:29N 46°45' W 092°08'3 6.6
2018-Apr-16 05:00N 46°48' W 092°06'3306.2 040 / 31018.6 -3.5 1.0
2018-Apr-16 04:59N 46°45' W 092°08'0 0.0
2018-Apr-16 04:20N 46°45' W 092°08'3 9.5
2018-Apr-16 04:00N 46°48' W 092°06'320.1 110 / 31018.6 -3.5 1.0
2018-Apr-16 03:50N 46°45' W 092°08'0 0.0
2018-Apr-16 03:20N 46°45' W 092°08'3 9.5
2018-Apr-16 03:00N 46°48' W 092°06'320.1 030 / 41019.3 -3.8 1.0
2018-Apr-16 02:50N 46°45' W 092°08'0 0.0
2018-Apr-16 02:20N 46°45' W 092°08'3 9.5
2018-Apr-16 02:00N 46°48' W 092°06'320.1 330 / 41019.6 -4.3 1.0
2018-Apr-16 01:50N 46°45' W 092°08'0 0.0
2018-Apr-16 01:23N 46°45' W 092°08'3 8.3
2018-Apr-16 01:00N 46°48' W 092°06'329.0 040 / 31020.0 -4.5 1.0
2018-Apr-16 00:53N 46°45' W 092°08'0 0.0
2018-Apr-16 00:23N 46°45' W 092°08'3 8.3
2018-Apr-16 00:00N 46°48' W 092°06'320.1 010 / 141020.3 -4.6 1.0
2018-Apr-15 23:50N 46°45' W 092°08'0 0.0
2018-Apr-15 23:23N 46°45' W 092°08'3 8.3
2018-Apr-15 23:00N 46°48' W 092°06'352.6 280 / 171020.3 -4.1 1.1
2018-Apr-15 22:56N 46°45' W 092°08'0 0.0
2018-Apr-15 22:26N 46°45' W 092°08'3 7.4
2018-Apr-15 22:00N 46°48' W 092°06'352.4 300 / 31020.7 -4.2 1.0
2018-Apr-15 21:56N 46°45' W 092°08'0 0.0
2018-Apr-15 21:23N 46°45' W 092°08'3 8.3
2018-Apr-15 21:00N 46°48' W 092°06'3298.3 180 / 21021.0 -2.9 1.0
2018-Apr-15 20:59N 46°45' W 092°08'0 0.0
2018-Apr-15 20:29N 46°45' W 092°08'3 6.6
2018-Apr-15 20:00N 46°48' W 092°06'3306.7 210 / 31021.3 -3.1 0.9
2018-Apr-15 19:59N 46°45' W 092°08'0 0.0
2018-Apr-15 19:29N 46°45' W 092°08'3 6.6
2018-Apr-15 19:00N 46°48' W 092°06'354.4 080 / 21021.7 -3.0 0.9
2018-Apr-15 18:56N 46°45' W 092°08'0 0.0
2018-Apr-15 18:26N 46°45' W 092°08'3 7.4
2018-Apr-15 18:00N 46°48' W 092°06'3291.0 200 / 21023.0 -3.6 0.9
2018-Apr-15 17:59N 46°45' W 092°08'0 0.0
2018-Apr-15 17:29N 46°45' W 092°08'3 6.6
2018-Apr-15 17:00N 46°48' W 092°06'352.9 270 / 41023.7 -3.9 0.9
2018-Apr-15 16:56N 46°45' W 092°08'0 0.0
2018-Apr-15 16:29N 46°45' W 092°08'3 6.6
2018-Apr-15 16:00N 46°48' W 092°06'3291.5 260 / 31024.0 -3.9 1.0
2018-Apr-15 15:59N 46°45' W 092°08'0 0.0
2018-Apr-15 15:17N 46°45' W 092°08'311.2
2018-Apr-15 15:00N 46°48' W 092°06'3270.6 220 / 21023.7 -4.1 0.9
2018-Apr-15 14:59N 46°45' W 092°08'0 0.0
2018-Apr-15 14:29N 46°45' W 092°08'3 6.6
2018-Apr-15 14:00N 46°48' W 092°06'3277.5 330 / 31023.7 -3.9 1.0
2018-Apr-15 13:59N 46°45' W 092°08'0 0.0
2018-Apr-15 13:29N 46°45' W 092°08'3 6.6
2018-Apr-15 13:00N 46°48' W 092°06'3264.4 260 / 51023.4 -3.4 1.0
2018-Apr-15 12:59N 46°45' W 092°08'0 0.0
2018-Apr-15 12:05N 46°45' W 092°08'336.3
2018-Apr-15 12:00N 46°48' W 092°06'315.2 220 / 61023.0 -2.8 1.2
2018-Apr-15 11:47N 46°45' W 092°08'0 0.0
2018-Apr-15 11:23N 46°45' W 092°08'3 8.4
2018-Apr-15 11:00N 46°48' W 092°06'315.3 230 / 51022.4 -2.2 1.3
2018-Apr-15 10:47N 46°45' W 092°08'0 0.0
2018-Apr-15 10:05N 46°45' W 092°08'336.2
2018-Apr-15 10:00N 46°48' W 092°06'328.9 170 / 61022.4 -2.8 1.3
2018-Apr-15 09:53N 46°45' W 092°08'0 0.0
2018-Apr-15 09:05N 46°45' W 092°08'336.9
2018-Apr-15 09:00N 46°48' W 092°06'328.9 260 / 51023.0 -2.4 1.2
2018-Apr-15 08:53N 46°45' W 092°08'0 0.0
2018-Apr-15 08:26N 46°45' W 092°08'3 7.4
2018-Apr-15 08:00N 46°48' W 092°06'352.3 290 / 41023.4 -2.2 1.2
2018-Apr-15 07:56N 46°45' W 092°08'0 0.0
2018-Apr-15 07:23N 46°45' W 092°08'3 8.4
2018-Apr-15 07:00N 46°48' W 092°06'352.0 210 / 41024.0 -1.6 1.3
2018-Apr-15 06:56N 46°45' W 092°08'0 0.0
2018-Apr-15 06:26N 46°45' W 092°08'3 7.4
2018-Apr-15 06:00N 46°48' W 092°06'352.4 150 / 41025.4 -1.2 1.3
2018-Apr-15 05:56N 46°45' W 092°08'0 0.0
2018-Apr-15 05:14N 46°45' W 092°08'313.6
2018-Apr-15 05:00N 46°48' W 092°06'3258.5 270 / 41026.1 -1.2 1.2
2018-Apr-15 04:59N 46°45' W 092°08'0 0.0
2018-Apr-15 04:26N 46°45' W 092°08'3 7.4
2018-Apr-15 04:00N 46°48' W 092°06'3253.5 290 / 41026.8 -1.3 1.1
2018-Apr-15 03:59N 46°45' W 092°08'0 0.0
2018-Apr-15 03:29N 46°45' W 092°08'3 6.6
2018-Apr-15 03:00N 46°48' W 092°06'3277.5 300 / 41027.4 -2.0 1.1
2018-Apr-15 02:59N 46°45' W 092°08'0 0.0
2018-Apr-15 02:29N 46°45' W 092°08'3 6.6
2018-Apr-15 02:00N 46°48' W 092°06'351.7 190 / 41027.4 -2.0 1.2
2018-Apr-15 01:56N 46°45' W 092°08'0 0.0
2018-Apr-15 01:29N 46°45' W 092°08'3 6.6
2018-Apr-15 01:00N 46°48' W 092°06'3270.3 270 / 41028.4 -2.4 1.3
2018-Apr-15 00:59N 46°45' W 092°08'0 0.0
2018-Apr-15 00:29N 46°45' W 092°08'3 6.6
2018-Apr-15 00:00N 46°48' W 092°06'3242.5 200 / 51027.8 -2.8 1.4
2018-Apr-14 23:59N 46°45' W 092°08'0 0.0
2018-Apr-14 23:29N 46°45' W 092°08'3 6.6
2018-Apr-14 23:00N 46°48' W 092°06'3237.0 140 / 41027.4 -3.2 1.4
2018-Apr-14 22:59N 46°45' W 092°08'0 0.0
2018-Apr-14 22:20N 46°45' W 092°08'3 9.6
2018-Apr-14 22:00N 46°48' W 092°06'315.2 180 / 51026.4 -3.5 1.4
2018-Apr-14 21:47N 46°45' W 092°08'0 0.0
2018-Apr-14 21:20N 46°45' W 092°08'3 9.6
2018-Apr-14 21:00N 46°48' W 092°06'319.9 220 / 51025.4 -3.5 1.4
2018-Apr-14 20:50N 46°45' W 092°08'0 0.0
2018-Apr-14 20:23N 46°45' W 092°08'3 8.3
2018-Apr-14 20:00N 46°48' W 092°06'328.5 220 / 41026.4 -3.5 1.4
2018-Apr-14 19:53N 46°45' W 092°08'0 0.0
2018-Apr-14 19:23N 46°45' W 092°08'3 8.4
2018-Apr-14 19:00N 46°48' W 092°06'319.8 210 / 51026.8 -3.8 1.4
2018-Apr-14 18:50N 46°45' W 092°08'0 0.0
2018-Apr-14 18:23N 46°45' W 092°08'3 8.4
2018-Apr-14 18:00N 46°48' W 092°06'328.5 040 / 131026.4 -3.5 1.4
2018-Apr-14 17:53N 46°45' W 092°08'0 0.0
2018-Apr-14 17:26N 46°45' W 092°08'3 7.4
2018-Apr-14 17:00N 46°48' W 092°06'351.3 200 / 61028.4 -3.3 1.4
2018-Apr-14 16:56N 46°45' W 092°08'0 0.0
2018-Apr-14 16:26N 46°45' W 092°08'3 7.4
2018-Apr-14 16:00N 46°48' W 092°06'328.4 010 / 101028.1 -3.0 1.4
2018-Apr-14 15:53N 46°45' W 092°08'0 0.0
2018-Apr-14 15:26N 46°45' W 092°08'3 7.4
2018-Apr-14 15:00N 46°48' W 092°06'3248.0 060 / 101027.4 -3.0 1.4
2018-Apr-14 14:59N 46°45' W 092°08'0 0.0
2018-Apr-14 14:29N 46°45' W 092°08'3 6.6
2018-Apr-14 14:00N 46°48' W 092°06'3223.9 020 / 81026.4 -2.5 1.4
2018-Apr-14 13:59N 46°45' W 092°08'0 0.0
2018-Apr-14 13:29N 46°45' W 092°08'3 6.7
2018-Apr-14 13:00N 46°48' W 092°06'351.9 120 / 61025.1 -2.3 1.4
2018-Apr-14 12:56N 46°45' W 092°08'0 0.0
2018-Apr-14 12:29N 46°45' W 092°08'3 6.7
2018-Apr-14 12:00N 46°48' W 092°06'349.7 080 / 61024.7 -2.0 1.4
2018-Apr-14 11:56N 46°45' W 092°08'0 0.0
2018-Apr-14 11:29N 46°45' W 092°08'3 6.6
2018-Apr-14 11:00N 46°48' W 092°06'3223.9 350 / 91024.0 -1.9 1.4
2018-Apr-14 10:59N 46°45' W 092°08'0 0.0
2018-Apr-14 10:29N 46°45' W 092°08'3 6.6
2018-Apr-14 10:00N 46°48' W 092°06'3228.1 320 / 71024.0 -1.2 1.6
2018-Apr-14 09:59N 46°45' W 092°08'0 0.0
2018-Apr-14 09:17N 46°45' W 092°08'311.2
2018-Apr-14 09:00N 46°48' W 092°06'3232.7 340 / 61024.0 -0.9 1.7
2018-Apr-14 08:59N 46°45' W 092°08'0 0.0
2018-Apr-14 08:29N 46°45' W 092°08'3 6.6
2018-Apr-14 08:00N 46°48' W 092°06'3237.8 030 / 111024.4 -0.5 1.8
2018-Apr-14 07:59N 46°45' W 092°08'0 0.0
2018-Apr-14 07:29N 46°45' W 092°08'3 6.7
2018-Apr-14 07:00N 46°48' W 092°06'3242.5 120 / 71023.7 -0.3 1.7
2018-Apr-14 06:59N 46°45' W 092°08'0 0.0
2018-Apr-14 06:20N 46°45' W 092°08'3 9.6
2018-Apr-14 06:00N 46°48' W 092°06'319.8 340 / 81023.4 0.2 1.6
2018-Apr-14 05:50N 46°45' W 092°08'0 0.0
2018-Apr-14 05:23N 46°45' W 092°08'3 8.4
2018-Apr-14 05:00N 46°48' W 092°06'328.3 1023.4 0.5 1.7
2018-Apr-14 04:53N 46°45' W 092°08'0 0.0
2018-Apr-14 04:23N 46°45' W 092°08'3 8.4
2018-Apr-14 04:00N 46°48' W 092°06'328.4 320 / 51023.7 0.6 1.7
2018-Apr-14 03:53N 46°45' W 092°08'0 0.0
2018-Apr-14 03:20N 46°45' W 092°08'3 9.6
2018-Apr-14 03:00N 46°48' W 092°06'351.5 020 / 71023.7 0.8 1.6
2018-Apr-14 02:56N 46°45' W 092°08'0 0.0
2018-Apr-14 02:26N 46°45' W 092°08'3 7.4
2018-Apr-14 02:00N 46°48' W 092°06'349.7 020 / 81022.4 1.0 1.6
2018-Apr-14 01:56N 46°45' W 092°08'0 0.0
2018-Apr-14 01:23N 46°45' W 092°08'3 8.4
2018-Apr-14 01:00N 46°48' W 092°06'350.6 340 / 61021.3 0.9 1.5
2018-Apr-14 00:56N 46°45' W 092°08'0 0.0
2018-Apr-14 00:26N 46°45' W 092°08'3 7.4
2018-Apr-14 00:00N 46°48' W 092°06'350.0 340 / 111021.0 1.2 1.5
2018-Apr-13 23:56N 46°45' W 092°08'0 0.0
2018-Apr-13 23:29N 46°45' W 092°08'3 6.7
2018-Apr-13 23:00N 46°48' W 092°06'3242.1 350 / 131019.3 1.2 1.5
2018-Apr-13 22:59N 46°45' W 092°08'0 0.0
2018-Apr-13 22:29N 46°45' W 092°08'3 6.7
2018-Apr-13 22:00N 46°48' W 092°06'3215.2 010 / 91020.0 1.5 1.5
2018-Apr-13 21:59N 46°45' W 092°08'0 0.0
2018-Apr-13 21:29N 46°45' W 092°08'3 6.7
2018-Apr-13 21:00N 46°48' W 092°06'3219.3 070 / 71019.0 1.6 1.5
2018-Apr-13 20:59N 46°45' W 092°08'0 0.0
2018-Apr-13 20:29N 46°45' W 092°08'3 6.6
2018-Apr-13 20:00N 46°48' W 092°06'310.2 040 / 61017.9 1.8 1.5
2018-Apr-13 19:41N 46°45' W 092°08'0 0.0
2018-Apr-13 19:29N 46°45' W 092°08'3 6.7
2018-Apr-13 19:00N 46°48' W 092°06'3223.5 010 / 141017.3 2.6 1.5
2018-Apr-13 18:59N 46°45' W 092°08'0 0.0
2018-Apr-13 18:29N 46°45' W 092°08'3 6.7
2018-Apr-13 18:00N 46°48' W 092°06'3 7.8 020 / 111017.6 1.8 1.5
2018-Apr-13 17:35N 46°45' W 092°08'0 0.0
2018-Apr-13 17:29N 46°45' W 092°08'3 6.7
2018-Apr-13 17:00N 46°48' W 092°06'319.5 1016.9 2.0 1.5
2018-Apr-13 16:50N 46°45' W 092°08'0 0.0
2018-Apr-13 16:20N 46°45' W 092°08'3 9.6
2018-Apr-13 16:00N 46°48' W 092°06'319.5 020 / 111016.3 1.3 1.5
2018-Apr-13 15:50N 46°45' W 092°08'0 0.0
2018-Apr-13 15:08N 46°45' W 092°08'323.9
2018-Apr-13 15:00N 46°48' W 092°06'3 7.8 030 / 91015.6 1.2 1.5
2018-Apr-13 14:35N 46°45' W 092°08'0 0.0
2018-Apr-13 14:23N 46°45' W 092°08'3 8.4
2018-Apr-13 14:00N 46°48' W 092°06'327.9 010 / 101015.9 1.4 1.4
2018-Apr-13 13:53N 46°45' W 092°08'0 0.0
2018-Apr-13 13:23N 46°45' W 092°08'0 0.0
2018-Apr-13 12:53N 46°45' W 092°08'0 0.0
2018-Apr-13 12:23N 46°45' W 092°08'0 0.0
2018-Apr-13 11:53N 46°45' W 092°08'0 0.0
2018-Apr-13 11:20N 46°45' W 092°08'0 0.0
2018-Apr-13 10:56N 46°45' W 092°08'0 0.0
2018-Apr-13 10:26N 46°45' W 092°08'3 7.4
2018-Apr-13 10:00N 46°48' W 092°06'349.9 030 / 41012.2 2.6 1.4
2018-Apr-13 09:56N 46°45' W 092°08'0 0.0
2018-Apr-13 09:26N 46°45' W 092°08'3 7.4
2018-Apr-13 09:00N 46°48' W 092°06'349.7 230 / 21011.5 2.5 1.3
2018-Apr-13 08:56N 46°45' W 092°08'1 1.5
2018-Apr-13 08:30N 46°45' W 092°07'3 6.8
2018-Apr-13 08:00N 46°48' W 092°06'351.1 030 / 131011.5 2.6 1.3
2018-Apr-13 07:56N 46°45' W 092°06'0 0.9
2018-Apr-13 07:26N 46°46' W 092°06'2 5.5
2018-Apr-13 07:00N 46°48' W 092°06'223.0 040 / 161011.5 3.2 1.5
2018-Apr-13 06:53N 46°46' W 092°06'0 0.0
2018-Apr-13 06:26N 46°46' W 092°06'2 5.5
2018-Apr-13 06:00N 46°48' W 092°06'243.1 050 / 61011.9 2.7 1.5
2018-Apr-13 05:56N 46°46' W 092°06'0 0.4
2018-Apr-13 05:30N 46°46' W 092°06'2 3.9
2018-Apr-13 05:00N 46°47' W 092°04'297.7
2018-Apr-13 05:00N 46°48' W 092°06'713.4 330 / 11012.2 3.4 1.0
2018-Apr-13 04:30N 46°49' W 091°57'713.3
2018-Apr-13 04:00N 46°52' W 091°48'2183.6
2018-Apr-13 04:00N 46°54' W 091°48'713.6 080 / 21011.9 3.1 1.4
2018-Apr-13 03:30N 46°54' W 091°38'611.1
2018-Apr-13 03:00N 46°54' W 091°30'1413.7 250 / 31012.2 1.7 1.0
2018-Apr-13 02:00N 47°00' W 091°12'1413.7 190 / 51010.2 1.7 1.2
2018-Apr-13 01:00N 47°06' W 090°54'1212.3 200 / 61008.8 1.4 0.9
2018-Apr-13 00:00N 47°06' W 090°36'1413.6 190 / 81008.5 1.4 0.9
2018-Apr-12 23:00N 47°12' W 090°18'1717.4 190 / 121008.1 0.8 1.0
2018-Apr-12 22:00N 47°18' W 089°54'1212.2 210 / 91007.8 0.9 0.8
2018-Apr-12 21:00N 47°18' W 089°36'1413.6 060 / 51007.810.8 0.6 0.7
2018-Apr-12 20:00N 47°24' W 089°18'1212.2 270 / 61008.5 0.7 0.7
2018-Apr-12 19:00N 47°24' W 089°00'1717.3 280 / 21007.1 0.4 0.7
2018-Apr-12 18:00N 47°30' W 088°36'1212.2 190 / 41007.1 0.2 0.6
2018-Apr-12 17:00N 47°30' W 088°18'1413.5 050 / 61006.8 0.2 0.6
2018-Apr-12 16:00N 47°36' W 088°00'1413.5 350 / 71006.1 -0.1 0.6
2018-Apr-12 15:00N 47°30' W 087°42'1413.6 020 / 91005.4 -0.1 0.7
2018-Apr-12 14:00N 47°24' W 087°24'1413.6 200 / 61005.1 -0.4 0.6
2018-Apr-12 13:00N 47°18' W 087°06'1616.3 180 / 91005.4 -0.5 0.6
2018-Apr-12 12:00N 47°18' W 086°42'6613.2 180 / 61005.8 0.3 0.7
2018-Apr-12 07:00N 46°54' W 085°12'1413.7 140 / 101011.2 -2.0 0.7
2018-Apr-12 06:00N 46°48' W 084°54'1312.7 150 / 41011.5 -4.6 0.6
2018-Apr-12 05:00N 46°36' W 084°48'1010.2 110 / 71012.2 -6.0 0.8
2018-Apr-12 04:00N 46°30' W 084°36'8 8.3 150 / 71013.2 -2.8 0.4
2018-Apr-12 03:00N 46°30' W 084°24'0 0.0 060 / 21013.5 -1.6 0.2
2018-Apr-12 02:00N 46°30' W 084°24'4 4.1 260 / 31014.6 -0.1 0.2
2018-Apr-12 01:00N 46°30' W 084°18'0 0.0 200 / 41013.3 1.6 0.4
2018-Apr-12 00:00N 46°30' W 084°18'0 0.0 350 / 41013.0 2.4 0.3
2018-Apr-11 23:00N 46°30' W 084°18'0 0.0 320 / 81013.0 2.8 0.2
2018-Apr-11 22:00N 46°30' W 084°18'7 7.3 310 / 91013.0 2.6 0.3
2018-Apr-11 21:00N 46°24' W 084°12'0 0.0 310 / 71013.0 2.5 0.2
2018-Apr-11 20:00N 46°24' W 084°12'0 0.0 320 / 131012.7 2.4 0.2
2018-Apr-11 19:00N 46°24' W 084°12'7 7.3 270 / 141011.6 2.0 0.2
2018-Apr-11 18:00N 46°18' W 084°06'6 6.0 300 / 171011.0 1.8 0.2
2018-Apr-11 17:00N 46°12' W 084°06'1312.7 300 / 81010.3 1.2 0.3
2018-Apr-11 16:00N 46°00' W 084°00'1010.3 240 / 51010.6 0.6 0.6
2018-Apr-11 15:00N 45°54' W 083°48'818.9 270 / 181011.0 -0.2 0.8
2018-Apr-11 14:35N 45°47' W 083°45'313.5
2018-Apr-11 14:22N 45°44' W 083°42'513.6
2018-Apr-11 14:00N 45°40' W 083°38'3421.0
2018-Apr-11 14:00N 45°42' W 083°42'1020.2 220 / 191010.6 0.9 1.2
2018-Apr-11 13:30N 45°35' W 083°33'713.7
2018-Apr-11 13:00N 45°29' W 083°27'713.6
2018-Apr-11 12:30N 45°23' W 083°22'611.5
2018-Apr-11 12:00N 45°18' W 083°18'1514.7 210 / 141012.3 0.4 0.7
2018-Apr-11 11:00N 45°06' W 083°06'1312.7 220 / 141013.3 0.6 0.7
2018-Apr-11 10:00N 44°54' W 083°00'1312.7 230 / 161013.3 0.7 1.2
2018-Apr-11 09:00N 44°42' W 082°54'1312.7 210 / 121014.3 0.8 1.2
2018-Apr-11 08:00N 44°30' W 082°48'4414.6 230 / 121015.010.8 0.9 1.0
2018-Apr-11 05:00N 43°48' W 082°30'1212.0 250 / 141017.7 1.6 1.2
2018-Apr-11 04:00N 43°36' W 082°30'1212.0 240 / 141018.4 2.4 1.3
2018-Apr-11 03:00N 43°24' W 082°30'1918.5 200 / 121018.8 2.4 1.5
2018-Apr-11 02:00N 43°06' W 082°24'6 6.0 200 / 101019.4 3.1 2.1
2018-Apr-11 01:00N 43°00' W 082°24'1312.8 190 / 141019.4 4.9 2.1
2018-Apr-11 00:00N 42°48' W 082°30'6 6.0 190 / 101019.8 4.4 2.0
2018-Apr-10 23:00N 42°42' W 082°30'1312.8 180 / 111020.4 4.8 1.9
2018-Apr-10 22:00N 42°30' W 082°36'1110.7 180 / 121020.6 4.4 2.0
2018-Apr-10 21:00N 42°24' W 082°48'1110.7 150 / 131020.6 3.5 3.0
2018-Apr-10 20:00N 42°18' W 083°00'4 4.4 220 / 81020.9 5.3 3.5
2018-Apr-10 19:00N 42°18' W 083°06'0 0.0 200 / 71021.6 7.0 2.8
2018-Apr-10 18:00N 42°18' W 083°06'6 6.0 250 / 41022.6 6.6 2.8
2018-Apr-10 17:00N 42°12' W 083°06'6 6.0 260 / 71023.3 3.7 3.0
2018-Apr-10 16:00N 42°06' W 083°06'1212.0 140 / 41024.2 1.9 3.0
2018-Apr-10 15:00N 41°54' W 083°06'1313.4 280 / 61024.2 0.8 2.7
2018-Apr-10 14:00N 41°54' W 082°48'   260 / 61023.9 0.7 3.3

Dump ship's entire track history